Time;durP1;ratioP1;P1;durP2;ratioP2;P2;SDS_P1;SDS_P2;PMS_P1;PMS_P2;Temp;Humidity;BMP_temperature;BMP_pressure;BME280_temperature;BME280_humidity;BME280_pressure;Samples;Min_cycle;Max_cycle;Signal;HPM_P1;HPM_P2
2023/07/05 00:00:51;;;;;;;6.72;2.58;;;15.30;99.90;;;;;;5054769;28;19917;-70
2023/07/05 00:03:17;;;;;;;5.63;2.35;;;15.30;99.90;;;;;;5059593;28;20506;-70
2023/07/05 00:05:42;;;;;;;6.60;2.90;;;15.30;99.90;;;;;;5059126;28;20047;-70
2023/07/05 00:08:08;;;;;;;6.72;2.50;;;15.30;99.90;;;;;;5059492;28;20085;-70
2023/07/05 00:10:34;;;;;;;7.93;3.00;;;15.30;99.90;;;;;;5054864;28;20075;-70
2023/07/05 00:13:00;;;;;;;5.47;2.85;;;15.30;99.90;;;;;;5058756;28;20044;-70
2023/07/05 00:15:28;;;;;;;5.85;3.05;;;15.30;99.90;;;;;;5061385;28;20041;-70
2023/07/05 00:17:54;;;;;;;10.48;2.60;;;15.30;99.90;;;;;;5058087;28;20052;-70
2023/07/05 00:20:20;;;;;;;5.90;2.75;;;15.20;99.90;;;;;;5057280;28;20032;-70
2023/07/05 00:22:45;;;;;;;6.80;2.47;;;15.20;99.90;;;;;;5057713;28;20052;-70
2023/07/05 00:25:11;;;;;;;7.57;3.13;;;15.20;99.90;;;;;;5052011;28;20415;-71
2023/07/05 00:27:37;;;;;;;5.38;2.40;;;15.20;99.90;;;;;;5060388;28;20079;-70
2023/07/05 00:30:03;;;;;;;6.20;2.58;;;15.20;99.90;;;;;;5057445;28;20041;-70
2023/07/05 00:32:28;;;;;;;7.15;2.53;;;15.20;99.90;;;;;;5061393;28;20048;-70
2023/07/05 00:34:54;;;;;;;7.28;3.17;;;15.20;99.90;;;;;;5053455;28;20383;-70
2023/07/05 00:37:20;;;;;;;7.28;3.00;;;15.20;99.90;;;;;;5039535;28;20403;-70
2023/07/05 00:39:46;;;;;;;10.35;3.00;;;15.20;99.90;;;;;;5055347;28;20089;-70
2023/07/05 00:42:11;;;;;;;9.13;2.83;;;15.20;99.90;;;;;;5056120;28;20119;-69
2023/07/05 00:44:37;;;;;;;6.85;3.20;;;15.20;99.90;;;;;;5070204;28;20109;-69
2023/07/05 00:47:13;;;;;;;6.57;2.80;;;15.20;99.90;;;;;;5059161;28;20041;-70
2023/07/05 00:49:39;;;;;;;8.05;3.53;;;15.20;99.90;;;;;;5058682;28;20035;-70
2023/07/05 00:52:11;;;;;;;7.60;3.15;;;15.20;99.90;;;;;;5048973;28;20041;-69
2023/07/05 00:54:47;;;;;;;7.78;3.22;;;15.20;99.90;;;;;;5059128;28;20063;-70
2023/07/05 00:57:17;;;;;;;5.93;3.00;;;15.20;99.90;;;;;;5060237;28;20049;-70
2023/07/05 00:59:51;;;;;;;8.50;3.60;;;15.20;99.90;;;;;;5058864;28;20494;-69
2023/07/05 01:02:16;;;;;;;8.40;3.95;;;15.20;99.90;;;;;;5057707;28;20240;-70
2023/07/05 01:04:44;;;;;;;7.50;3.58;;;15.20;99.90;;;;;;5058601;28;20192;-70
2023/07/05 01:07:09;;;;;;;9.27;3.97;;;15.10;99.90;;;;;;5060171;28;20146;-70
2023/07/05 01:09:35;;;;;;;7.25;3.63;;;15.10;99.90;;;;;;5058169;28;20219;-70
2023/07/05 01:12:36;;;;;;;8.15;3.40;;;15.10;99.90;;;;;;5056623;28;20029;-70
2023/07/05 01:15:18;;;;;;;6.93;3.35;;;15.10;99.90;;;;;;4961242;28;20544;-70
2023/07/05 01:18:01;;;;;;;8.45;3.70;;;15.10;99.90;;;;;;5051847;28;20139;-69
2023/07/05 01:20:36;;;;;;;8.65;3.92;;;15.10;99.90;;;;;;5053603;28;20064;-69
2023/07/05 01:23:32;;;;;;;7.78;3.95;;;15.00;99.90;;;;;;5049866;28;20041;-70
2023/07/05 01:26:13;;;;;;;6.05;3.40;;;15.10;99.90;;;;;;5057012;28;20406;-69
2023/07/05 01:29:10;;;;;;;6.85;3.70;;;15.00;99.90;;;;;;5049645;28;20137;-70
2023/07/05 01:31:43;;;;;;;11.02;3.20;;;15.10;99.90;;;;;;5047927;28;20102;-70
2023/07/05 01:34:11;;;;;;;9.30;3.20;;;15.10;99.90;;;;;;5059803;28;20041;-70
2023/07/05 01:36:38;;;;;;;8.52;3.50;;;15.10;99.90;;;;;;5059629;28;20040;-70
2023/07/05 01:39:03;;;;;;;8.98;3.30;;;15.00;99.90;;;;;;5046453;28;20053;-70
2023/07/05 01:41:29;;;;;;;8.82;3.50;;;15.00;99.90;;;;;;5055823;28;20529;-70
2023/07/05 01:43:55;;;;;;;7.82;3.00;;;15.00;99.90;;;;;;5056879;28;20053;-70
2023/07/05 01:46:26;;;;;;;6.85;3.42;;;15.00;99.90;;;;;;5049741;28;20044;-70
2023/07/05 01:49:19;;;;;;;9.05;3.80;;;15.00;99.90;;;;;;5056972;28;20052;-70
2023/07/05 01:52:08;;;;;;;7.53;3.22;;;15.00;99.90;;;;;;5044265;28;20483;-71
2023/07/05 01:55:02;;;;;;;10.38;3.85;;;14.90;99.90;;;;;;5056968;28;20510;-70
2023/07/05 01:57:33;;;;;;;8.60;3.60;;;14.90;99.90;;;;;;5052543;28;20036;-70
2023/07/05 02:00:15;;;;;;;8.77;4.13;;;15.00;99.90;;;;;;5058741;28;20049;-70
2023/07/05 02:02:53;;;;;;;9.85;3.97;;;14.90;99.90;;;;;;5059321;28;20056;-70
2023/07/05 02:05:21;;;;;;;6.95;4.13;;;14.90;99.90;;;;;;5051569;28;20048;-70
2023/07/05 02:07:47;;;;;;;8.75;3.83;;;14.90;99.90;;;;;;5059915;28;20497;-70
2023/07/05 02:10:14;;;;;;;10.15;4.00;;;14.90;99.90;;;;;;5071744;22;20480;-71
2023/07/05 02:12:40;;;;;;;7.50;4.10;;;14.90;99.90;;;;;;5070809;28;20062;-71
2023/07/05 02:15:06;;;;;;;7.30;3.63;;;14.90;99.90;;;;;;5070780;28;20057;-71
2023/07/05 02:17:32;;;;;;;;;;;14.90;99.90;;;;;;5074690;28;20097;-71
2023/07/05 02:19:57;;;;;;;9.73;4.20;;;14.90;99.90;;;;;;5049884;28;19916;-71
2023/07/05 02:22:23;;;;;;;10.57;4.72;;;14.90;99.90;;;;;;5060843;28;20083;-71
2023/07/05 02:24:52;;;;;;;10.77;4.20;;;14.90;99.90;;;;;;5070112;28;20076;-70
2023/07/05 02:27:18;;;;;;;10.38;4.53;;;14.90;99.90;;;;;;5054201;28;20053;-71
2023/07/05 02:29:44;;;;;;;10.15;4.53;;;14.90;99.90;;;;;;5042481;28;20044;-70
2023/07/05 02:32:10;;;;;;;9.98;5.03;;;14.90;99.90;;;;;;5072254;28;20342;-70
2023/07/05 02:34:40;;;;;;;9.55;4.88;;;14.90;99.90;;;;;;5079331;28;20032;-70
2023/07/05 02:37:10;;;;;;;10.68;4.72;;;14.90;99.90;;;;;;5070837;28;20091;-71
2023/07/05 02:39:36;;;;;;;10.75;4.68;;;14.90;99.90;;;;;;5062697;28;20192;-70
2023/07/05 02:42:03;;;;;;;9.98;4.70;;;14.90;99.90;;;;;;5052489;28;20083;-71
2023/07/05 02:44:29;;;;;;;7.68;4.55;;;14.90;99.90;;;;;;5060980;28;20048;-70
2023/07/05 02:46:55;;;;;;;7.30;4.38;;;14.80;99.90;;;;;;5072928;28;20100;-71
2023/07/05 02:49:20;;;;;;;13.73;4.65;;;14.80;99.90;;;;;;5050013;28;20530;-70
2023/07/05 02:51:46;;;;;;;8.18;4.50;;;14.90;99.90;;;;;;5042320;28;20191;-71
2023/07/05 02:54:12;;;;;;;8.88;4.65;;;14.90;99.90;;;;;;5075350;28;20509;-70
2023/07/05 02:56:38;;;;;;;12.88;4.60;;;14.90;99.90;;;;;;5051847;28;20505;-71
2023/07/05 02:59:04;;;;;;;9.90;4.75;;;14.90;99.90;;;;;;5057086;28;20056;-71
2023/07/05 03:01:30;;;;;;;15.15;5.43;;;14.90;99.90;;;;;;5057681;28;20044;-71
2023/07/05 03:03:55;;;;;;;8.18;4.65;;;14.80;99.90;;;;;;5047787;28;20052;-71
2023/07/05 03:06:21;;;;;;;9.32;4.60;;;14.80;99.90;;;;;;5049771;28;20101;-71
2023/07/05 03:08:47;;;;;;;8.70;5.50;;;14.80;99.90;;;;;;5076367;28;20451;-72
2023/07/05 03:11:13;;;;;;;10.10;5.50;;;14.80;99.90;;;;;;5048382;28;20693;-71
2023/07/05 03:13:38;;;;;;;17.08;6.03;;;14.80;99.90;;;;;;5076158;28;20041;-71
2023/07/05 03:16:05;;;;;;;12.38;5.38;;;14.80;99.90;;;;;;5075923;28;20381;-71
2023/07/05 03:18:31;;;;;;;11.60;5.65;;;14.80;99.90;;;;;;5053596;28;20048;-71
2023/07/05 03:20:57;;;;;;;10.85;5.65;;;14.80;99.90;;;;;;5058807;28;20071;-71
2023/07/05 03:23:23;;;;;;;9.70;5.88;;;14.80;99.90;;;;;;5059825;28;20111;-71
2023/07/05 03:26:05;;;;;;;12.10;6.32;;;14.80;99.90;;;;;;5071407;28;20448;-71
2023/07/05 03:28:32;;;;;;;13.18;6.72;;;14.80;99.90;;;;;;5044044;28;20048;-71
2023/07/05 03:31:01;;;;;;;10.52;5.47;;;14.80;99.90;;;;;;5061003;28;20379;-71
2023/07/05 03:33:27;;;;;;;12.13;6.10;;;14.80;99.90;;;;;;5078035;28;20059;-72
2023/07/05 03:35:54;;;;;;;;;;;14.80;99.90;;;;;;5050496;28;20044;-72
2023/07/05 03:38:19;;;;;;;11.43;5.65;;;14.80;99.90;;;;;;5034390;28;19916;-72
2023/07/05 03:40:45;;;;;;;8.57;5.15;;;14.80;99.90;;;;;;5068052;28;20527;-72
2023/07/05 03:43:11;;;;;;;12.88;6.45;;;14.80;99.90;;;;;;5070971;28;20044;-72
2023/07/05 03:45:37;;;;;;;11.52;5.93;;;14.80;99.90;;;;;;5070530;28;20487;-72
2023/07/05 03:48:02;;;;;;;13.98;6.78;;;14.80;99.90;;;;;;5059772;28;20037;-72
2023/07/05 03:50:28;;;;;;;16.05;6.85;;;14.80;99.90;;;;;;5054438;28;20048;-73
2023/07/05 03:52:54;;;;;;;8.20;5.22;;;14.80;99.90;;;;;;5052555;28;20048;-72
2023/07/05 03:55:19;;;;;;;9.70;5.18;;;14.90;99.90;;;;;;5042330;28;20071;-72
2023/07/05 03:57:45;;;;;;;12.07;5.97;;;14.90;99.90;;;;;;5063250;28;20343;-72
2023/07/05 04:00:11;;;;;;;11.25;5.78;;;14.90;99.90;;;;;;5046471;28;20127;-72
2023/07/05 04:02:37;;;;;;;;;;;14.90;99.90;;;;;;5071985;28;20143;-71
2023/07/05 04:05:03;;;;;;;10.50;6.40;;;15.00;99.90;;;;;;5071693;28;19924;-72
2023/07/05 04:07:29;;;;;;;;;;;14.90;99.90;;;;;;5066138;28;20039;-71
2023/07/05 04:09:55;;;;;;;13.95;6.50;;;15.00;99.90;;;;;;5029981;28;20257;-72
2023/07/05 04:12:20;;;;;;;11.00;6.18;;;15.00;99.90;;;;;;5073904;28;20040;-72
2023/07/05 04:14:46;;;;;;;10.13;5.78;;;15.00;99.90;;;;;;5067611;28;20405;-72
2023/07/05 04:17:12;;;;;;;11.13;6.22;;;15.00;99.90;;;;;;5061533;28;20028;-72
2023/07/05 04:19:37;;;;;;;9.35;5.70;;;15.00;99.90;;;;;;5055907;28;20051;-72
2023/07/05 04:22:03;;;;;;;13.57;5.50;;;15.10;99.90;;;;;;5058739;28;20044;-72
2023/07/05 04:24:29;;;;;;;11.73;5.65;;;15.10;99.90;;;;;;5062399;28;20083;-72
2023/07/05 04:26:55;;;;;;;8.77;5.25;;;15.10;99.90;;;;;;5041273;28;20063;-72
2023/07/05 04:29:21;;;;;;;9.02;4.93;;;15.10;99.90;;;;;;5064314;28;20048;-72
2023/07/05 04:31:46;;;;;;;13.10;4.65;;;15.20;99.90;;;;;;5062734;28;20119;-72
2023/07/05 04:34:12;;;;;;;8.70;4.75;;;15.20;99.90;;;;;;5073454;28;20383;-72
2023/07/05 04:36:38;;;;;;;7.00;4.28;;;15.20;99.90;;;;;;5054080;28;20373;-72
2023/07/05 04:39:03;;;;;;;8.30;4.28;;;15.20;99.90;;;;;;5060054;28;20358;-73
2023/07/05 04:41:29;;;;;;;10.48;3.83;;;15.20;99.90;;;;;;5057902;28;20047;-72
2023/07/05 04:43:55;;;;;;;4.68;2.90;;;15.20;99.90;;;;;;5070423;28;20506;-72
2023/07/05 04:46:22;;;;;;;7.03;2.88;;;15.20;99.90;;;;;;5035859;28;20089;-72
2023/07/05 04:48:47;;;;;;;;;;;15.10;99.90;;;;;;5073950;28;20052;-72
2023/07/05 04:51:13;;;;;;;7.22;2.58;;;15.10;99.90;;;;;;5048045;28;20168;-72
2023/07/05 04:53:39;;;;;;;6.13;2.75;;;15.00;99.90;;;;;;5039190;28;20036;-72
2023/07/05 04:56:05;;;;;;;5.07;2.10;;;15.00;99.90;;;;;;5044452;28;20068;-71
2023/07/05 04:58:31;;;;;;;4.50;2.60;;;15.00;99.90;;;;;;5055388;28;20043;-71
2023/07/05 05:01:04;;;;;;;5.15;2.63;;;15.00;99.90;;;;;;5056215;28;20101;-72
2023/07/05 05:03:31;;;;;;;3.92;2.35;;;14.90;99.90;;;;;;5075776;28;20040;-72
2023/07/05 05:05:57;;;;;;;4.57;2.40;;;14.90;99.90;;;;;;5053393;28;20063;-71
2023/07/05 05:08:24;;;;;;;7.50;2.95;;;14.80;99.90;;;;;;5076198;28;20497;-71
2023/07/05 05:11:00;;;;;;;4.85;2.30;;;14.80;99.90;;;;;;5044559;28;20160;-71
2023/07/05 05:13:28;;;;;;;5.00;2.13;;;14.80;99.90;;;;;;5067094;28;20062;-71
2023/07/05 05:15:54;;;;;;;5.68;2.22;;;14.80;99.90;;;;;;5050170;28;20304;-71
2023/07/05 05:18:21;;;;;;;5.70;2.20;;;14.70;99.90;;;;;;5040173;28;20431;-71
2023/07/05 05:20:48;;;;;;;6.78;2.30;;;14.70;99.90;;;;;;5072035;28;20051;-71
2023/07/05 05:23:13;;;;;;;4.20;2.28;;;14.70;99.90;;;;;;5071155;28;20175;-71
2023/07/05 05:25:44;;;;;;;4.78;2.55;;;14.70;99.90;;;;;;5066098;28;20049;-71
2023/07/05 05:28:10;;;;;;;6.88;3.10;;;14.60;99.90;;;;;;5080065;28;20036;-71
2023/07/05 05:30:36;;;;;;;3.70;2.55;;;14.60;99.90;;;;;;5053441;28;20037;-71
2023/07/05 05:33:05;;;;;;;8.27;3.22;;;14.60;99.90;;;;;;5060401;28;20051;-71
2023/07/05 05:35:32;;;;;;;4.85;2.88;;;14.50;99.90;;;;;;5067095;28;20045;-71
2023/07/05 05:37:58;;;;;;;5.05;2.90;;;14.50;99.90;;;;;;5052811;28;20094;-71
2023/07/05 05:40:24;;;;;;;4.47;2.58;;;14.50;99.90;;;;;;5066870;28;20115;-71
2023/07/05 05:42:49;;;;;;;7.70;3.03;;;14.50;99.90;;;;;;5047584;28;20047;-71
2023/07/05 05:45:15;;;;;;;6.25;2.88;;;14.40;99.90;;;;;;5083179;28;20182;-72
2023/07/05 05:47:42;;;;;;;7.07;3.08;;;14.40;99.90;;;;;;5070896;28;20405;-71
2023/07/05 05:50:08;;;;;;;5.82;2.85;;;14.40;99.90;;;;;;5059065;28;20114;-71
2023/07/05 05:52:35;;;;;;;5.53;2.90;;;14.40;99.90;;;;;;5058269;28;20472;-71
2023/07/05 05:55:02;;;;;;;5.95;3.15;;;14.50;99.90;;;;;;5070294;28;20079;-71
2023/07/05 05:57:28;;;;;;;4.05;2.65;;;14.40;99.90;;;;;;5066157;28;20036;-71
2023/07/05 05:59:53;;;;;;;5.13;2.78;;;14.50;99.90;;;;;;5049131;28;20037;-71
2023/07/05 06:02:19;;;;;;;5.55;3.17;;;14.50;99.90;;;;;;5078272;28;20043;-71
2023/07/05 06:04:45;;;;;;;5.82;2.90;;;14.50;99.90;;;;;;5044704;28;20041;-71
2023/07/05 06:07:10;;;;;;;6.25;3.50;;;14.40;99.90;;;;;;5069855;28;20144;-71
2023/07/05 06:09:44;;;;;;;7.95;3.10;;;14.40;99.90;;;;;;5075919;28;20390;-71
2023/07/05 06:12:09;;;;;;;7.65;3.03;;;14.40;99.90;;;;;;5072252;28;20198;-72
2023/07/05 06:14:35;;;;;;;4.88;2.83;;;14.40;99.90;;;;;;5076022;28;20090;-71
2023/07/05 06:17:01;;;;;;;6.35;2.88;;;14.40;99.90;;;;;;5072631;28;20041;-71
2023/07/05 06:19:26;;;;;;;5.05;2.70;;;14.40;99.90;;;;;;5074682;28;20459;-72
2023/07/05 06:21:52;;;;;;;5.63;2.92;;;14.50;99.90;;;;;;5055904;28;20059;-71
2023/07/05 06:24:18;;;;;;;4.78;2.72;;;14.40;99.90;;;;;;5056217;28;20033;-71
2023/07/05 06:26:44;;;;;;;7.50;3.00;;;14.40;99.90;;;;;;5060949;28;20076;-71
2023/07/05 06:29:09;;;;;;;7.43;2.85;;;14.40;99.90;;;;;;5071113;28;20398;-71
2023/07/05 06:31:35;;;;;;;4.72;2.53;;;14.40;99.90;;;;;;5077713;28;20041;-73
2023/07/05 06:34:01;;;;;;;8.07;2.78;;;14.40;99.90;;;;;;5055570;28;20063;-71
2023/07/05 06:36:26;;;;;;;5.55;2.63;;;14.50;99.90;;;;;;5073100;28;20036;-71
2023/07/05 06:38:52;;;;;;;5.20;2.70;;;14.50;99.90;;;;;;5056360;28;20120;-71
2023/07/05 06:41:18;;;;;;;3.80;2.10;;;14.60;99.90;;;;;;5047417;28;20110;-72
2023/07/05 06:43:44;;;;;;;4.03;2.42;;;14.60;99.90;;;;;;5064904;28;20229;-71
2023/07/05 06:46:10;;;;;;;5.43;2.10;;;14.70;99.90;;;;;;5057679;28;20052;-71
2023/07/05 06:48:36;;;;;;;4.50;1.90;;;14.70;99.90;;;;;;5061766;28;20366;-71
2023/07/05 06:51:02;;;;;;;4.30;2.00;;;14.70;99.90;;;;;;5059495;28;20045;-71
2023/07/05 06:53:28;;;;;;;5.47;2.17;;;14.70;99.90;;;;;;5057157;28;20032;-71
2023/07/05 06:55:53;;;;;;;4.80;1.80;;;14.80;99.90;;;;;;5043147;28;20060;-72
2023/07/05 06:58:20;;;;;;;5.07;2.10;;;14.80;99.90;;;;;;5048145;28;20085;-72
2023/07/05 07:00:47;;;;;;;4.35;1.67;;;14.80;99.90;;;;;;5053086;28;20489;-71
2023/07/05 07:03:13;;;;;;;3.58;2.00;;;14.80;99.90;;;;;;5051149;28;20055;-71
2023/07/05 07:05:39;;;;;;;4.38;1.90;;;14.90;99.90;;;;;;5058655;28;20044;-71
2023/07/05 07:08:05;;;;;;;5.18;1.70;;;14.90;99.90;;;;;;5061392;28;20076;-71
2023/07/05 07:10:33;;;;;;;3.30;1.73;;;15.00;99.90;;;;;;5055628;28;20048;-71
2023/07/05 07:12:58;;;;;;;5.47;2.38;;;15.00;99.90;;;;;;5077240;28;20040;-72
2023/07/05 07:15:24;;;;;;;5.18;2.30;;;15.00;99.90;;;;;;5061839;28;20051;-71
2023/07/05 07:17:50;;;;;;;6.80;2.85;;;15.00;99.90;;;;;;5073057;28;20175;-71
2023/07/05 07:20:15;;;;;;;3.00;1.65;;;14.90;99.90;;;;;;5057871;28;20145;-71
2023/07/05 07:22:41;;;;;;;5.60;2.05;;;14.80;99.90;;;;;;5068653;28;20168;-71
2023/07/05 07:25:08;;;;;;;2.53;1.13;;;14.80;99.90;;;;;;5069681;28;20181;-71
2023/07/05 07:27:33;;;;;;;2.70;1.20;;;14.70;99.90;;;;;;5050525;28;20386;-71
2023/07/05 07:29:59;;;;;;;3.90;1.20;;;14.60;99.90;;;;;;5054694;28;20089;-71
2023/07/05 07:32:25;;;;;;;2.03;0.90;;;14.40;99.90;;;;;;5049305;28;20037;-71
2023/07/05 07:34:53;;;;;;;3.20;0.95;;;14.30;99.90;;;;;;5042196;28;20048;-71
2023/07/05 07:37:18;;;;;;;3.55;1.23;;;14.10;99.90;;;;;;5057292;28;20095;-72
2023/07/05 07:39:44;;;;;;;1.92;0.77;;;13.90;99.90;;;;;;5044212;28;20466;-72
2023/07/05 07:42:10;;;;;;;1.85;0.63;;;13.70;99.90;;;;;;5030790;28;20112;-72
2023/07/05 07:44:36;;;;;;;2.40;0.80;;;13.50;99.90;;;;;;5061373;28;20783;-72
2023/07/05 07:47:02;;;;;;;1.50;0.88;;;13.30;99.90;;;;;;5049046;28;20131;-72
2023/07/05 07:49:28;;;;;;;;;;;13.20;99.90;;;;;;5051485;28;20075;-72
2023/07/05 07:51:55;;;;;;;1.17;0.63;;;13.20;99.90;;;;;;5071173;28;19962;-72
2023/07/05 07:54:26;;;;;;;1.20;0.50;;;13.10;99.90;;;;;;5060339;28;20072;-71
2023/07/05 07:56:54;;;;;;;1.05;0.50;;;13.00;99.90;;;;;;5084141;28;20051;-72
2023/07/05 07:59:21;;;;;;;2.45;0.50;;;12.90;99.90;;;;;;5061420;28;20115;-72
2023/07/05 08:01:47;;;;;;;1.10;0.30;;;12.80;99.90;;;;;;5050585;28;20585;-72
2023/07/05 08:04:14;;;;;;;1.65;0.40;;;12.70;99.90;;;;;;5029786;28;20117;-72
2023/07/05 08:06:40;;;;;;;1.50;0.45;;;12.60;99.90;;;;;;5044605;28;20456;-72
2023/07/05 08:09:08;;;;;;;;;;;12.50;99.90;;;;;;5036916;28;20127;-72
2023/07/05 08:11:35;;;;;;;2.40;0.35;;;12.40;99.90;;;;;;5047039;22;19904;-73
2023/07/05 08:14:00;;;;;;;;;;;12.40;99.90;;;;;;5061580;28;20053;-71
2023/07/05 08:16:26;;;;;;;1.42;0.57;;;12.30;99.90;;;;;;5049242;28;19920;-72
2023/07/05 08:18:52;;;;;;;0.95;0.50;;;12.30;99.90;;;;;;5050252;28;20098;-72
2023/07/05 08:21:18;;;;;;;3.17;0.60;;;12.30;99.90;;;;;;5044095;28;20273;-71
2023/07/05 08:23:45;;;;;;;1.92;0.55;;;12.20;99.90;;;;;;5048347;28;20060;-72
2023/07/05 08:26:12;;;;;;;0.75;0.40;;;12.20;99.90;;;;;;5048775;28;20057;-72
2023/07/05 08:28:37;;;;;;;1.85;0.50;;;12.20;99.90;;;;;;5048837;28;20499;-72
2023/07/05 08:31:05;;;;;;;1.85;0.70;;;12.20;99.90;;;;;;5044808;28;20179;-72
2023/07/05 08:33:33;;;;;;;5.18;0.63;;;12.20;99.90;;;;;;5048154;28;20049;-72
2023/07/05 08:36:36;;;;;;;2.65;0.63;;;12.20;99.90;;;;;;5048453;28;20045;-73
2023/07/05 08:39:05;;;;;;;1.80;0.50;;;12.20;99.90;;;;;;5047030;28;20474;-73
2023/07/05 08:41:44;;;;;;;2.78;0.73;;;12.20;99.90;;;;;;5047855;28;20048;-71
2023/07/05 08:44:27;;;;;;;3.13;0.90;;;12.20;99.90;;;;;;5047805;28;20051;-72
2023/07/05 08:47:03;;;;;;;2.58;0.90;;;12.20;99.90;;;;;;5047966;28;20397;-72
2023/07/05 08:49:35;;;;;;;4.80;1.15;;;12.20;99.90;;;;;;5047988;28;20490;-72
2023/07/05 08:52:01;;;;;;;2.85;0.70;;;12.30;99.90;;;;;;5047542;28;20529;-72
2023/07/05 08:54:32;;;;;;;4.93;0.93;;;12.30;99.90;;;;;;5049657;28;20033;-72
2023/07/05 08:57:25;;;;;;;8.82;1.50;;;12.40;99.90;;;;;;5048859;28;20045;-71
2023/07/05 08:59:57;;;;;;;4.20;0.90;;;12.60;99.90;;;;;;5043220;28;20068;-72
2023/07/05 09:02:23;;;;;;;4.40;0.82;;;12.60;99.90;;;;;;5040452;28;20040;-72
2023/07/05 09:04:49;;;;;;;2.50;0.80;;;12.80;99.90;;;;;;5047966;28;20116;-71
2023/07/05 09:07:22;;;;;;;5.63;1.00;;;12.90;99.90;;;;;;5048696;28;20052;-72
2023/07/05 09:10:12;;;;;;;4.03;1.17;;;13.10;99.90;;;;;;5043155;28;20117;-72
2023/07/05 09:13:00;;;;;;;9.43;0.98;;;13.10;99.90;;;;;;5042075;28;20056;-72
2023/07/05 09:15:32;;;;;;;3.70;0.93;;;13.20;99.90;;;;;;5042949;28;20359;-72
2023/07/05 09:18:16;;;;;;;5.35;0.90;;;13.30;99.90;;;;;;5034655;28;20371;-72
2023/07/05 09:20:59;;;;;;;3.75;0.60;;;13.40;99.90;;;;;;5051228;28;20128;-71
2023/07/05 09:23:45;;;;;;;2.78;0.82;;;13.50;99.90;;;;;;5050967;28;20053;-71
2023/07/05 09:26:40;;;;;;;3.63;0.50;;;13.50;99.90;;;;;;5051265;28;20048;-71
2023/07/05 09:29:18;;;;;;;0.70;0.40;;;13.60;99.90;;;;;;5052994;28;20044;-72
2023/07/05 09:31:46;;;;;;;1.15;0.40;;;13.60;99.90;;;;;;5050055;28;20037;-71
2023/07/05 09:34:18;;;;;;;4.47;0.43;;;13.60;99.90;;;;;;5052094;28;20148;-71
2023/07/05 09:36:46;;;;;;;1.20;0.40;;;13.60;99.90;;;;;;5050951;28;20053;-71
2023/07/05 09:39:30;;;;;;;1.73;0.50;;;13.70;99.90;;;;;;5052343;28;20045;-71
2023/07/05 09:41:59;;;;;;;0.50;0.30;;;13.70;99.90;;;;;;5043264;28;20052;-71
2023/07/05 09:44:25;;;;;;;1.95;0.30;;;13.80;99.90;;;;;;5053186;28;20574;-71
2023/07/05 09:46:51;;;;;;;1.05;0.50;;;13.90;99.90;;;;;;5059171;28;20048;-71
2023/07/05 09:49:19;;;;;;;1.38;0.38;;;14.00;99.90;;;;;;5053030;28;20045;-71
2023/07/05 09:51:46;;;;;;;6.07;0.85;;;14.00;99.90;;;;;;5050534;28;20060;-70
2023/07/05 09:54:26;;;;;;;1.17;0.40;;;14.10;99.90;;;;;;5050634;28;20075;-71
2023/07/05 09:57:06;;;;;;;3.15;0.60;;;14.20;99.90;;;;;;5051442;28;20052;-71
2023/07/05 09:59:33;;;;;;;1.95;0.28;;;14.30;99.90;;;;;;5051681;28;20051;-71
2023/07/05 10:02:12;;;;;;;4.03;0.40;;;14.20;99.90;;;;;;5053058;28;20041;-71
2023/07/05 10:04:46;;;;;;;2.80;0.30;;;14.20;99.90;;;;;;5044203;28;20041;-71
2023/07/05 10:07:21;;;;;;;1.95;0.20;;;14.10;99.90;;;;;;5046256;28;20052;-71
2023/07/05 10:10:10;;;;;;;0.77;0.20;;;14.10;99.90;;;;;;5051607;28;20041;-71
2023/07/05 10:12:41;;;;;;;0.77;0.30;;;14.30;99.90;;;;;;5045590;28;20037;-71
2023/07/05 10:15:24;;;;;;;2.13;0.70;;;14.50;99.90;;;;;;5045111;28;20127;-71
2023/07/05 10:17:53;;;;;;;3.85;0.90;;;14.70;99.90;;;;;;5052260;28;20048;-71
2023/07/05 10:20:23;;;;;;;4.13;0.60;;;14.80;99.90;;;;;;5051832;28;20044;-71
2023/07/05 10:22:58;;;;;;;1.15;0.40;;;15.00;99.90;;;;;;5052056;28;20052;-70
2023/07/05 10:25:28;;;;;;;0.88;0.30;;;15.20;99.90;;;;;;5049332;28;20048;-71
2023/07/05 10:27:59;;;;;;;2.13;0.47;;;15.40;99.90;;;;;;5049656;28;20053;-71
2023/07/05 10:30:27;;;;;;;0.75;0.47;;;15.60;99.90;;;;;;5037179;28;20036;-71
2023/07/05 10:33:16;;;;;;;2.63;0.55;;;15.70;99.90;;;;;;5056463;28;20048;-71
2023/07/05 10:36:08;;;;;;;1.23;0.40;;;15.80;99.90;;;;;;5051276;28;20060;-71
2023/07/05 10:38:47;;;;;;;1.60;0.65;;;15.90;99.90;;;;;;5041968;28;20136;-71
2023/07/05 10:41:25;;;;;;;2.33;0.57;;;16.00;99.90;;;;;;5052085;28;20450;-71
2023/07/05 10:44:12;;;;;;;2.13;0.50;;;16.10;99.90;;;;;;5045505;28;20156;-71
2023/07/05 10:46:39;;;;;;;2.92;0.60;;;16.20;99.90;;;;;;5048726;28;20036;-71
2023/07/05 10:49:11;;;;;;;;;;;16.40;99.90;;;;;;5055211;28;20076;-70
2023/07/05 10:51:40;;;;;;;7.55;0.60;;;16.40;99.90;;;;;;5046724;28;20003;-71
2023/07/05 10:54:23;;;;;;;1.45;0.40;;;16.40;99.90;;;;;;5050189;28;20056;-71
2023/07/05 10:56:49;;;;;;;1.65;0.77;;;16.50;99.90;;;;;;5051097;28;20043;-71
2023/07/05 10:59:36;;;;;;;6.80;0.80;;;16.70;99.90;;;;;;5052670;28;20045;-71
2023/07/05 11:02:26;;;;;;;2.33;0.85;;;16.80;99.90;;;;;;5049355;28;20049;-70
2023/07/05 11:04:53;;;;;;;4.15;1.13;;;16.90;99.90;;;;;;5030411;28;20048;-71
2023/07/05 11:07:21;;;;;;;6.90;0.73;;;16.90;99.90;;;;;;5035714;28;20052;-72
2023/07/05 11:09:48;;;;;;;3.58;0.80;;;17.00;99.90;;;;;;5033125;28;20045;-71
2023/07/05 11:12:21;;;;;;;3.67;0.95;;;17.10;99.90;;;;;;5053196;28;20075;-71
2023/07/05 11:14:48;;;;;;;3.40;0.77;;;17.20;99.90;;;;;;5053287;28;20040;-71
2023/07/05 11:17:28;;;;;;;3.78;1.00;;;17.20;99.90;;;;;;5050397;28;20306;-71
2023/07/05 11:19:54;;;;;;;5.45;0.70;;;17.30;99.90;;;;;;5039073;28;20049;-71
2023/07/05 11:22:46;;;;;;;6.10;1.00;;;17.40;99.90;;;;;;5051487;28;20051;-71
2023/07/05 11:25:18;;;;;;;5.13;0.80;;;17.60;99.90;;;;;;5047998;28;20049;-70
2023/07/05 11:27:53;;;;;;;4.70;0.80;;;17.70;99.90;;;;;;5030818;28;20117;-71
2023/07/05 11:30:39;;;;;;;4.38;1.08;;;17.80;99.90;;;;;;5033799;28;20132;-71
2023/07/05 11:33:05;;;;;;;3.95;0.77;;;17.80;99.90;;;;;;5035824;28;20514;-71
2023/07/05 11:35:57;;;;;;;5.45;1.63;;;18.00;99.90;;;;;;5051646;28;20051;-71
2023/07/05 11:38:39;;;;;;;2.50;0.90;;;18.10;99.90;;;;;;5033741;28;20051;-70
2023/07/05 11:41:07;;;;;;;6.43;1.15;;;18.10;99.90;;;;;;5053961;28;20127;-71
2023/07/05 11:43:37;;;;;;;8.70;1.60;;;18.00;99.90;;;;;;5048616;28;20041;-71
2023/07/05 11:46:24;;;;;;;7.80;1.27;;;17.80;99.90;;;;;;5051584;28;20690;-70
2023/07/05 11:48:50;;;;;;;7.45;1.35;;;17.40;99.90;;;;;;5046931;28;20045;-70
2023/07/05 11:51:30;;;;;;;6.63;1.70;;;16.70;99.90;;;;;;5048983;28;20514;-71
2023/07/05 11:53:59;;;;;;;8.18;1.92;;;16.30;99.90;;;;;;5050130;28;20037;-70
2023/07/05 11:56:29;;;;;;;3.80;0.98;;;15.90;99.90;;;;;;5053472;28;20507;-70
2023/07/05 11:58:56;;;;;;;9.15;1.50;;;15.60;99.90;;;;;;5053856;28;20187;-71
2023/07/05 12:01:28;;;;;;;3.45;1.45;;;15.30;99.90;;;;;;5047059;28;20401;-70
2023/07/05 12:04:00;;;;;;;5.97;1.20;;;15.10;99.90;;;;;;5047352;28;20041;-71
2023/07/05 12:06:40;;;;;;;6.47;1.70;;;14.90;99.90;;;;;;5064044;28;20041;-71
2023/07/05 12:09:15;;;;;;;7.75;1.80;;;14.80;99.90;;;;;;5030951;28;20371;-71
2023/07/05 12:11:42;;;;;;;10.27;2.03;;;14.60;99.90;;;;;;5046110;28;20060;-70
2023/07/05 12:14:16;;;;;;;7.28;2.17;;;14.50;99.90;;;;;;5051173;28;20048;-71
2023/07/05 12:16:43;;;;;;;6.82;1.80;;;14.30;99.90;;;;;;5041384;28;20083;-71
2023/07/05 12:19:21;;;;;;;6.25;1.85;;;14.10;99.90;;;;;;5050724;28;20041;-71
2023/07/05 12:21:55;;;;;;;6.18;1.40;;;14.10;99.90;;;;;;5050423;28;20075;-72
2023/07/05 12:24:21;;;;;;;9.35;2.20;;;14.00;99.90;;;;;;5050697;28;20767;-71
2023/07/05 12:26:47;;;;;;;7.43;1.67;;;13.90;99.90;;;;;;5050487;28;20052;-72
2023/07/05 12:29:21;;;;;;;6.72;1.75;;;13.90;99.90;;;;;;5058086;28;20052;-71
2023/07/05 12:31:47;;;;;;;7.35;1.90;;;13.90;99.90;;;;;;5048437;28;20082;-71
2023/07/05 12:34:19;;;;;;;9.63;2.40;;;13.80;99.90;;;;;;5049920;28;20045;-71
2023/07/05 12:36:45;;;;;;;11.02;3.13;;;13.80;99.90;;;;;;5050022;28;20075;-71
2023/07/05 12:39:15;;;;;;;9.32;2.30;;;13.90;99.90;;;;;;5050918;28;20045;-71
2023/07/05 12:41:41;;;;;;;8.80;2.13;;;13.80;99.90;;;;;;5042301;28;20569;-71
2023/07/05 12:44:14;;;;;;;7.15;1.63;;;13.80;99.90;;;;;;5030962;28;20084;-71
2023/07/05 12:46:42;;;;;;;11.63;2.13;;;13.80;99.90;;;;;;5047883;28;20514;-71
2023/07/05 12:49:24;;;;;;;9.88;2.00;;;13.80;99.90;;;;;;5049693;28;20045;-71
2023/07/05 12:51:54;;;;;;;10.15;1.75;;;13.80;99.90;;;;;;5047094;28;20383;-71
2023/07/05 12:54:20;;;;;;;12.52;2.88;;;13.80;99.90;;;;;;5048952;28;20044;-71
2023/07/05 12:56:49;;;;;;;10.02;2.15;;;13.70;99.90;;;;;;5052405;28;20052;-71
2023/07/05 12:59:37;;;;;;;10.32;2.50;;;13.70;99.90;;;;;;5049476;28;20116;-71
2023/07/05 13:02:05;;;;;;;11.95;1.92;;;13.70;99.90;;;;;;5051095;28;20037;-71